createdAt,value
2018-01-21T00:00:39.918Z,0.00
2018-01-21T00:01:39.835Z,0.00
2018-01-21T00:02:39.765Z,0.00
2018-01-21T00:03:39.662Z,0.00
2018-01-21T00:04:39.576Z,0.00
2018-01-21T00:05:39.516Z,0.00
2018-01-21T00:06:39.405Z,0.00
2018-01-21T00:07:39.319Z,0.00
2018-01-21T00:08:39.232Z,0.00
2018-01-21T00:09:39.148Z,0.00
2018-01-21T00:10:39.065Z,0.00
2018-01-21T00:11:38.992Z,0.00
2018-01-21T00:12:38.893Z,0.00
2018-01-21T00:13:38.812Z,0.00
2018-01-21T00:14:38.720Z,0.00
2018-01-21T00:15:38.635Z,0.00
2018-01-21T00:16:38.549Z,0.00
2018-01-21T00:17:38.469Z,0.00
2018-01-21T00:18:38.379Z,0.00
2018-01-21T00:19:38.294Z,0.00
2018-01-21T00:20:38.212Z,0.00
2018-01-21T00:21:38.120Z,0.00
2018-01-21T00:22:38.071Z,0.00
2018-01-21T00:23:37.951Z,0.00
2018-01-21T00:24:37.865Z,0.00
2018-01-21T00:25:37.778Z,0.00
2018-01-21T00:26:37.693Z,0.00
2018-01-21T00:27:37.610Z,0.00
2018-01-21T00:28:37.522Z,0.00
2018-01-21T00:29:37.465Z,0.00
2018-01-21T00:30:37.351Z,0.00
2018-01-21T00:31:37.267Z,0.00
2018-01-21T00:32:37.189Z,0.00
2018-01-21T00:33:37.095Z,0.00
2018-01-21T00:34:37.031Z,0.00
2018-01-21T00:35:36.926Z,0.00
2018-01-21T00:36:36.894Z,0.00
2018-01-21T00:37:36.755Z,0.00
2018-01-21T00:38:36.704Z,0.00
2018-01-21T00:39:36.588Z,0.00
2018-01-21T00:40:36.496Z,0.00
2018-01-21T00:41:36.430Z,0.00
2018-01-21T00:42:36.324Z,0.00
2018-01-21T00:43:36.239Z,0.00
2018-01-21T00:44:36.169Z,0.00
2018-01-21T00:45:36.069Z,0.00
2018-01-21T00:46:35.983Z,0.00
2018-01-21T00:47:35.898Z,0.00
2018-01-21T00:48:35.811Z,0.00
2018-01-21T00:49:35.731Z,0.00
2018-01-21T00:50:35.642Z,0.00
2018-01-21T00:51:35.556Z,0.00
2018-01-21T00:52:35.473Z,0.00
2018-01-21T00:53:35.385Z,0.00
2018-01-21T00:54:35.303Z,0.00
2018-01-21T00:55:35.216Z,0.00
2018-01-21T00:56:35.129Z,0.00
2018-01-21T00:57:35.046Z,0.00
2018-01-21T00:58:34.981Z,0.00
2018-01-21T00:59:34.873Z,0.00
2018-01-21T01:00:34.787Z,0.00
2018-01-21T01:01:34.710Z,0.00
2018-01-21T01:02:34.620Z,0.00
2018-01-21T01:03:34.539Z,0.00
2018-01-21T01:04:34.446Z,0.00
2018-01-21T01:05:34.361Z,0.00
2018-01-21T01:06:34.274Z,0.00
2018-01-21T01:07:34.191Z,0.00
2018-01-21T01:08:34.102Z,0.00
2018-01-21T01:09:34.019Z,0.00
2018-01-21T01:10:33.934Z,0.00
2018-01-21T01:11:33.847Z,0.00
2018-01-21T01:12:33.764Z,0.00
2018-01-21T01:13:33.680Z,0.00
2018-01-21T01:14:33.611Z,0.00
2018-01-21T01:15:33.509Z,0.00
2018-01-21T01:16:33.420Z,0.00
2018-01-21T01:17:33.334Z,0.00
2018-01-21T01:18:33.253Z,0.00
2018-01-21T01:19:33.164Z,0.00
2018-01-21T01:20:33.096Z,0.00
2018-01-21T01:21:32.995Z,0.00
2018-01-21T01:22:32.915Z,0.00
2018-01-21T01:23:32.824Z,0.00
2018-01-21T01:24:32.739Z,0.00
2018-01-21T01:25:32.672Z,0.00
2018-01-21T01:26:32.566Z,0.00
2018-01-21T01:27:32.483Z,0.00
2018-01-21T01:28:32.397Z,0.00
2018-01-21T01:29:32.315Z,0.00
2018-01-21T01:30:32.226Z,0.00
2018-01-21T01:31:32.152Z,0.00
2018-01-21T01:32:32.057Z,0.00
2018-01-21T01:33:31.969Z,0.00
2018-01-21T01:34:31.883Z,0.00
2018-01-21T01:35:31.798Z,0.00
2018-01-21T01:36:31.712Z,0.00
2018-01-21T01:37:31.626Z,0.00
2018-01-21T01:38:31.544Z,0.00
2018-01-21T01:39:31.459Z,0.00
2018-01-21T01:40:31.374Z,0.00
2018-01-21T01:41:31.287Z,0.00
2018-01-21T01:42:31.201Z,0.00
2018-01-21T01:43:31.120Z,0.00
2018-01-21T01:44:31.030Z,0.00
2018-01-21T01:45:30.944Z,0.00
2018-01-21T01:46:30.860Z,0.00
2018-01-21T01:47:30.775Z,0.00
2018-01-21T01:48:30.688Z,0.00
2018-01-21T01:49:30.604Z,0.00
2018-01-21T01:50:30.521Z,0.00
2018-01-21T01:51:30.434Z,0.00
2018-01-21T01:52:30.347Z,0.00
2018-01-21T01:53:30.268Z,0.00
2018-01-21T01:54:30.178Z,0.00
2018-01-21T01:55:30.093Z,0.00
2018-01-21T01:56:30.008Z,0.00
2018-01-21T01:57:29.948Z,0.00
2018-01-21T01:58:29.836Z,0.00
2018-01-21T01:59:29.752Z,0.00
2018-01-21T02:00:29.668Z,0.00
2018-01-21T02:01:29.596Z,0.00
2018-01-21T02:02:29.495Z,0.00
2018-01-21T02:03:29.409Z,0.00
2018-01-21T02:04:29.324Z,0.00
2018-01-21T02:05:29.240Z,0.00
2018-01-21T02:06:29.154Z,0.00
2018-01-21T02:07:29.076Z,0.00
2018-01-21T02:08:28.980Z,0.00
2018-01-21T02:09:28.896Z,0.00
2018-01-21T02:10:28.811Z,0.00
2018-01-21T02:11:28.725Z,0.00
2018-01-21T02:12:28.645Z,0.00
2018-01-21T02:13:28.557Z,0.00
2018-01-21T02:14:28.469Z,0.00
2018-01-21T02:15:28.386Z,0.00
2018-01-21T02:16:28.298Z,0.00
2018-01-21T02:17:28.212Z,0.00
2018-01-21T02:18:28.128Z,0.00
2018-01-21T02:19:28.050Z,0.00
2018-01-21T02:20:27.958Z,0.00
2018-01-21T02:21:27.875Z,0.00
2018-01-21T02:22:27.830Z,0.00
2018-01-21T02:23:27.703Z,0.00
2018-01-21T02:24:27.616Z,0.00
2018-01-21T02:25:27.531Z,0.00
2018-01-21T02:26:27.446Z,0.00
2018-01-21T02:27:27.362Z,0.00
2018-01-21T02:28:27.277Z,0.00
2018-01-21T02:29:27.191Z,0.00
2018-01-21T02:30:27.110Z,0.00
2018-01-21T02:31:27.022Z,0.00
2018-01-21T02:32:26.932Z,0.00
2018-01-21T02:33:26.849Z,0.00
2018-01-21T02:34:26.764Z,0.00
2018-01-21T02:35:26.678Z,0.00
2018-01-21T02:36:26.594Z,0.00
2018-01-21T02:37:26.515Z,0.00
2018-01-21T02:38:26.423Z,0.00
2018-01-21T02:39:26.340Z,0.00
2018-01-21T02:40:26.252Z,0.00
2018-01-21T02:41:26.172Z,0.00
2018-01-21T02:42:26.081Z,0.00
2018-01-21T02:43:25.996Z,0.00
2018-01-21T02:44:25.911Z,0.00
2018-01-21T02:45:25.823Z,0.00
2018-01-21T02:46:25.740Z,0.00
2018-01-21T02:47:25.667Z,0.00
2018-01-21T02:48:25.568Z,0.00
2018-01-21T02:49:25.484Z,0.00
2018-01-21T02:50:25.399Z,0.00
2018-01-21T02:51:25.312Z,0.00
2018-01-21T02:52:25.227Z,0.00
2018-01-21T02:53:25.141Z,0.00
2018-01-21T02:54:25.058Z,0.00
2018-01-21T02:55:24.983Z,0.00
2018-01-21T02:56:24.885Z,0.00
2018-01-21T02:57:24.801Z,0.00
2018-01-21T02:58:24.717Z,0.00
2018-01-21T02:59:24.630Z,0.00
2018-01-21T03:00:24.544Z,0.00
2018-01-21T03:01:24.459Z,0.00
2018-01-21T03:02:24.373Z,0.00
2018-01-21T03:03:24.295Z,0.00
2018-01-21T03:04:24.204Z,0.00
2018-01-21T03:05:24.117Z,0.00
2018-01-21T03:06:24.032Z,0.00
2018-01-21T03:07:23.946Z,0.00
2018-01-21T03:08:23.860Z,0.00
2018-01-21T03:09:23.777Z,0.00
2018-01-21T03:10:23.691Z,0.00
2018-01-21T03:11:23.606Z,0.00
2018-01-21T03:12:23.520Z,0.00
2018-01-21T03:13:23.437Z,0.00
2018-01-21T03:14:23.350Z,0.00
2018-01-21T03:15:23.262Z,0.00
2018-01-21T03:16:23.178Z,0.00
2018-01-21T03:17:23.092Z,0.00
2018-01-21T03:18:23.008Z,0.00
2018-01-21T03:19:22.931Z,0.00
2018-01-21T03:20:22.836Z,0.00
2018-01-21T03:21:22.758Z,0.00
2018-01-21T03:22:22.665Z,0.00
2018-01-21T03:23:22.581Z,0.00
2018-01-21T03:24:22.494Z,0.00
2018-01-21T03:25:22.410Z,0.00
2018-01-21T03:26:22.323Z,0.00
2018-01-21T03:27:22.239Z,0.00
2018-01-21T03:28:22.153Z,0.00
2018-01-21T03:29:22.067Z,0.00
2018-01-21T03:30:21.989Z,0.00
2018-01-21T03:31:21.899Z,0.00
2018-01-21T03:32:21.815Z,0.00
2018-01-21T03:33:21.727Z,0.00
2018-01-21T03:34:21.638Z,0.00
2018-01-21T03:35:21.555Z,0.00
2018-01-21T03:36:21.471Z,0.00
2018-01-21T03:37:21.384Z,0.00
2018-01-21T03:38:21.301Z,0.00
2018-01-21T03:39:21.213Z,0.00
2018-01-21T03:40:21.127Z,0.00
2018-01-21T03:41:21.044Z,0.00
2018-01-21T03:42:20.957Z,0.00
2018-01-21T03:43:20.874Z,0.00
2018-01-21T03:44:20.786Z,0.00
2018-01-21T03:45:20.706Z,0.00
2018-01-21T03:46:20.618Z,0.00
2018-01-21T03:47:20.530Z,0.00
2018-01-21T03:48:20.446Z,0.00
2018-01-21T03:49:20.360Z,0.00
2018-01-21T03:50:20.274Z,0.00
2018-01-21T03:51:20.194Z,0.00
2018-01-21T03:52:20.104Z,0.00
2018-01-21T03:53:20.020Z,0.00
2018-01-21T03:54:19.932Z,0.00
2018-01-21T03:55:19.849Z,0.00
2018-01-21T03:56:19.762Z,0.00
2018-01-21T03:57:19.690Z,0.00
2018-01-21T03:58:19.595Z,0.00
2018-01-21T03:59:19.510Z,0.00
2018-01-21T04:00:19.428Z,0.00
2018-01-21T04:01:19.341Z,0.00
2018-01-21T04:02:19.269Z,0.00
2018-01-21T04:03:19.186Z,0.00
2018-01-21T04:04:19.081Z,0.00
2018-01-21T04:05:18.993Z,0.00
2018-01-21T04:06:18.911Z,0.00
2018-01-21T04:07:18.826Z,0.00
2018-01-21T04:08:18.741Z,0.00
2018-01-21T04:09:18.653Z,0.00
2018-01-21T04:10:18.570Z,0.00
2018-01-21T04:11:18.487Z,0.00
2018-01-21T04:12:18.398Z,0.00
2018-01-21T04:13:18.312Z,0.00
2018-01-21T04:14:18.225Z,0.00
2018-01-21T04:15:18.142Z,0.00
2018-01-21T04:16:18.063Z,0.00
2018-01-21T04:17:17.973Z,0.00
2018-01-21T04:18:17.892Z,0.00
2018-01-21T04:19:17.803Z,0.00
2018-01-21T04:20:17.717Z,0.00
2018-01-21T04:21:17.630Z,0.00
2018-01-21T04:22:17.557Z,0.00
2018-01-21T04:23:17.460Z,0.00
2018-01-21T04:24:17.376Z,0.00
2018-01-21T04:25:17.292Z,0.00
2018-01-21T04:26:17.206Z,0.00
2018-01-21T04:27:17.121Z,0.00
2018-01-21T04:28:17.033Z,0.00
2018-01-21T04:29:16.951Z,0.00
2018-01-21T04:30:16.899Z,0.00
2018-01-21T04:31:16.787Z,0.00
2018-01-21T04:32:16.694Z,0.00
2018-01-21T04:33:16.609Z,0.00
2018-01-21T04:34:16.522Z,0.00
2018-01-21T04:35:16.439Z,0.00
2018-01-21T04:36:16.357Z,0.00
2018-01-21T04:37:16.265Z,0.00
2018-01-21T04:38:16.181Z,0.00
2018-01-21T04:39:16.096Z,0.00
2018-01-21T04:40:16.010Z,0.00
2018-01-21T04:41:15.925Z,0.00
2018-01-21T04:42:15.840Z,0.00
2018-01-21T04:43:15.756Z,0.00
2018-01-21T04:44:15.668Z,0.00
2018-01-21T04:45:15.582Z,0.00
2018-01-21T04:46:15.498Z,0.00
2018-01-21T04:47:15.413Z,0.00
2018-01-21T04:48:15.331Z,0.00
2018-01-21T04:49:15.242Z,0.00
2018-01-21T04:50:15.161Z,0.00
2018-01-21T04:51:15.069Z,0.00
2018-01-21T04:52:15.001Z,0.00
2018-01-21T04:53:14.897Z,0.00
2018-01-21T04:54:14.814Z,0.00
2018-01-21T04:55:14.728Z,0.00
2018-01-21T04:56:14.643Z,0.00
2018-01-21T04:57:14.556Z,0.00
2018-01-21T04:58:14.474Z,0.00
2018-01-21T04:59:14.386Z,0.00
2018-01-21T05:00:14.306Z,0.00
2018-01-21T05:01:14.241Z,0.00
2018-01-21T05:02:14.130Z,0.00
2018-01-21T05:03:14.044Z,0.00
2018-01-21T05:04:13.956Z,0.00
2018-01-21T05:05:13.873Z,0.00
2018-01-21T05:06:13.786Z,0.00
2018-01-21T05:07:13.708Z,0.00
2018-01-21T05:08:13.617Z,0.00
2018-01-21T05:09:13.538Z,0.00
2018-01-21T05:10:13.452Z,0.00
2018-01-21T05:11:13.360Z,0.00
2018-01-21T05:12:13.275Z,0.00
2018-01-21T05:13:13.189Z,0.00
2018-01-21T05:14:13.103Z,0.00
2018-01-21T05:15:13.021Z,0.00
2018-01-21T05:16:12.937Z,0.00
2018-01-21T05:17:12.847Z,0.00
2018-01-21T05:18:12.762Z,0.00
2018-01-21T05:19:12.675Z,0.00
2018-01-21T05:20:12.592Z,0.00
2018-01-21T05:21:12.503Z,0.00
2018-01-21T05:22:12.418Z,0.00
2018-01-21T05:23:12.333Z,0.00
2018-01-21T05:24:12.246Z,0.00
2018-01-21T05:25:12.159Z,0.00
2018-01-21T05:26:12.075Z,0.00
2018-01-21T05:27:11.989Z,0.00
2018-01-21T05:28:11.902Z,0.00
2018-01-21T05:29:11.817Z,0.00
2018-01-21T05:30:11.730Z,0.00
2018-01-21T05:31:11.650Z,0.00
2018-01-21T05:32:11.559Z,0.00
2018-01-21T05:33:11.474Z,0.00
2018-01-21T05:34:11.388Z,0.00
2018-01-21T05:35:11.309Z,0.00
2018-01-21T05:36:11.215Z,0.00
2018-01-21T05:37:11.128Z,0.00
2018-01-21T05:38:11.051Z,0.00
2018-01-21T05:39:10.957Z,0.00
2018-01-21T05:40:10.871Z,0.00
2018-01-21T05:41:10.787Z,0.00
2018-01-21T05:42:10.704Z,0.00
2018-01-21T05:43:10.614Z,0.00
2018-01-21T05:44:10.528Z,0.00
2018-01-21T05:45:10.442Z,0.00
2018-01-21T05:46:10.372Z,0.00
2018-01-21T05:47:10.273Z,0.00
2018-01-21T05:48:10.184Z,0.00
2018-01-21T05:49:10.099Z,0.00
2018-01-21T05:50:10.013Z,0.00
2018-01-21T05:51:09.927Z,0.00
2018-01-21T05:52:09.840Z,0.00
2018-01-21T05:53:09.753Z,0.00
2018-01-21T05:54:09.670Z,0.00
2018-01-21T05:55:09.580Z,0.00
2018-01-21T05:56:09.497Z,0.00
2018-01-21T05:57:09.409Z,0.00
2018-01-21T05:58:09.326Z,0.00
2018-01-21T05:59:09.238Z,0.00
2018-01-21T06:00:09.151Z,0.00
2018-01-21T06:01:09.065Z,0.00
2018-01-21T06:02:08.979Z,0.00
2018-01-21T06:03:08.894Z,0.00
2018-01-21T06:04:08.807Z,0.00
2018-01-21T06:05:08.723Z,0.00
2018-01-21T06:06:08.640Z,0.00
2018-01-21T06:07:08.550Z,0.00
2018-01-21T06:08:08.463Z,0.00
2018-01-21T06:09:08.377Z,0.00
2018-01-21T06:10:08.293Z,0.00
2018-01-21T06:11:08.204Z,0.00
2018-01-21T06:12:08.159Z,0.00
2018-01-21T06:13:08.033Z,0.00
2018-01-21T06:14:07.946Z,0.00
2018-01-21T06:15:07.867Z,0.00
2018-01-21T06:16:07.772Z,0.00
2018-01-21T06:17:07.688Z,0.00
2018-01-21T06:18:07.602Z,0.00
2018-01-21T06:19:07.517Z,0.00
2018-01-21T06:20:07.433Z,0.00
2018-01-21T06:21:07.344Z,0.00
2018-01-21T06:22:07.258Z,0.00
2018-01-21T06:23:07.171Z,0.00
2018-01-21T06:24:07.085Z,0.00
2018-01-21T06:25:07.000Z,0.00
2018-01-21T06:26:06.916Z,0.00
2018-01-21T06:27:06.866Z,0.00
2018-01-21T06:28:06.741Z,0.00
2018-01-21T06:29:06.656Z,0.00
2018-01-21T06:30:06.570Z,0.00
2018-01-21T06:31:06.483Z,0.00
2018-01-21T06:32:06.396Z,0.00
2018-01-21T06:33:06.313Z,0.00
2018-01-21T06:34:06.240Z,0.00
2018-01-21T06:35:06.141Z,4.00
2018-01-21T06:36:06.054Z,4.00
2018-01-21T06:37:05.968Z,0.00
2018-01-21T06:38:05.904Z,0.00
2018-01-21T06:39:05.796Z,4.00
2018-01-21T06:40:05.719Z,4.00
2018-01-21T06:41:05.626Z,4.00
2018-01-21T06:42:05.539Z,4.00
2018-01-21T06:43:05.452Z,8.00
2018-01-21T06:44:05.366Z,4.00
2018-01-21T06:45:05.280Z,4.00
2018-01-21T06:46:05.194Z,12.00
2018-01-21T06:47:05.111Z,8.00
2018-01-21T06:48:05.025Z,8.00
2018-01-21T06:49:04.944Z,12.00
2018-01-21T06:50:04.852Z,12.00
2018-01-21T06:51:04.765Z,12.00
2018-01-21T06:52:04.680Z,16.00
2018-01-21T06:53:04.592Z,12.00
2018-01-21T06:54:04.506Z,16.00
2018-01-21T06:55:04.421Z,16.00
2018-01-21T06:56:04.334Z,20.00
2018-01-21T06:57:04.248Z,20.00
2018-01-21T06:58:04.163Z,24.00
2018-01-21T06:59:04.076Z,24.00
2018-01-21T07:00:04.018Z,28.00
2018-01-21T07:01:03.908Z,32.00
2018-01-21T07:02:03.819Z,32.00
2018-01-21T07:03:03.732Z,36.00
2018-01-21T07:04:03.648Z,32.00
2018-01-21T07:05:03.562Z,40.00
2018-01-21T07:06:03.475Z,40.00
2018-01-21T07:07:03.402Z,44.00
2018-01-21T07:08:03.302Z,44.00
2018-01-21T07:09:03.218Z,48.00
2018-01-21T07:10:03.132Z,56.00
2018-01-21T07:11:03.047Z,60.00
2018-01-21T07:12:02.959Z,60.00
2018-01-21T07:13:02.871Z,60.00
2018-01-21T07:14:02.788Z,64.00
2018-01-21T07:15:02.703Z,64.00
2018-01-21T07:16:02.622Z,72.00
2018-01-21T07:17:02.533Z,72.00
2018-01-21T07:18:02.444Z,84.00
2018-01-21T07:19:02.358Z,96.00
2018-01-21T07:20:02.273Z,100.00
2018-01-21T07:21:02.185Z,104.00
2018-01-21T07:22:02.109Z,104.00
2018-01-21T07:23:02.015Z,116.00
2018-01-21T07:24:01.928Z,128.00
2018-01-21T07:25:01.842Z,128.00
2018-01-21T07:26:01.755Z,136.00
2018-01-21T07:27:01.669Z,148.00
2018-01-21T07:28:01.583Z,160.00
2018-01-21T07:29:01.498Z,168.00
2018-01-21T07:30:01.412Z,176.00
2018-01-21T07:31:01.327Z,184.00
2018-01-21T07:32:01.240Z,180.00
2018-01-21T07:33:01.155Z,176.00
2018-01-21T07:34:01.069Z,196.00
2018-01-21T07:35:00.988Z,204.00
2018-01-21T07:36:00.895Z,204.00
2018-01-21T07:37:00.814Z,224.00
2018-01-21T07:38:00.724Z,228.00
2018-01-21T07:39:00.638Z,244.00
2018-01-21T07:40:00.550Z,252.00
2018-01-21T07:41:00.465Z,256.00
2018-01-21T07:42:00.381Z,244.00
2018-01-21T07:43:00.298Z,268.00
2018-01-21T07:44:00.233Z,288.00
2018-01-21T07:45:00.126Z,284.00
2018-01-21T07:46:00.035Z,336.00
2018-01-21T07:46:59.949Z,364.00
2018-01-21T07:47:59.887Z,388.00
2018-01-21T07:48:59.777Z,400.00
2018-01-21T07:49:59.690Z,428.00
2018-01-21T07:50:59.608Z,428.00
2018-01-21T07:51:59.518Z,460.00
2018-01-21T07:52:59.443Z,460.00
2018-01-21T07:53:59.347Z,500.00
2018-01-21T07:54:59.316Z,468.00
2018-01-21T07:55:59.175Z,464.00
2018-01-21T07:56:59.112Z,496.00
2018-01-21T07:57:59.002Z,492.00
2018-01-21T07:58:58.919Z,492.00
2018-01-21T07:59:58.832Z,464.00
2018-01-21T08:00:58.744Z,532.00
2018-01-21T08:01:58.659Z,560.00
2018-01-21T08:02:58.573Z,556.00
2018-01-21T08:03:58.491Z,672.00
2018-01-21T08:04:58.420Z,752.00
2018-01-21T08:05:58.357Z,620.00
2018-01-21T08:06:58.230Z,624.00
2018-01-21T08:07:58.143Z,668.00
2018-01-21T08:08:58.056Z,648.00
2018-01-21T08:09:57.972Z,768.00
2018-01-21T08:10:57.887Z,844.00
2018-01-21T08:11:57.796Z,808.00
2018-01-21T08:12:57.712Z,884.00
2018-01-21T08:13:57.628Z,892.00
2018-01-21T08:14:57.540Z,984.00
2018-01-21T08:15:57.467Z,880.00
2018-01-21T08:16:57.368Z,792.00
2018-01-21T08:17:57.287Z,744.00
2018-01-21T08:18:57.196Z,748.00
2018-01-21T08:19:57.112Z,696.00
2018-01-21T08:20:57.026Z,716.00
2018-01-21T08:21:56.941Z,684.00
2018-01-21T08:22:56.861Z,676.00
2018-01-21T08:23:56.768Z,640.00
2018-01-21T08:24:56.681Z,556.00
2018-01-21T08:25:56.594Z,472.00
2018-01-21T08:26:56.509Z,412.00
2018-01-21T08:27:56.423Z,384.00
2018-01-21T08:28:56.339Z,388.00
2018-01-21T08:29:56.285Z,360.00
2018-01-21T08:30:56.167Z,340.00
2018-01-21T08:31:56.078Z,320.00
2018-01-21T08:32:55.993Z,308.00
2018-01-21T08:34:11.355Z,284.00
2018-01-21T08:34:55.827Z,280.00
2018-01-21T08:35:55.732Z,304.00
2018-01-21T08:36:55.732Z,284.00
2018-01-21T08:37:55.562Z,268.00
2018-01-21T08:38:55.477Z,296.00
2018-01-21T08:39:55.389Z,288.00
2018-01-21T08:40:55.306Z,324.00
2018-01-21T08:41:55.217Z,404.00
2018-01-21T08:42:55.161Z,432.00
2018-01-21T08:43:55.108Z,472.00
2018-01-21T08:44:54.960Z,480.00
2018-01-21T08:45:54.873Z,472.00
2018-01-21T08:46:55.435Z,484.00
2018-01-21T08:47:54.722Z,564.00
2018-01-21T08:48:54.619Z,592.00
2018-01-21T08:49:55.163Z,644.00
2018-01-21T08:50:54.448Z,644.00
2018-01-21T08:51:54.390Z,740.00
2018-01-21T08:52:54.273Z,756.00
2018-01-21T08:53:54.189Z,840.00
2018-01-21T08:54:54.100Z,796.00
2018-01-21T08:57:36.593Z,916.00
2018-01-21T08:58:36.455Z,1132.00
2018-01-21T09:00:40.245Z,1240.00
2018-01-21T09:01:40.187Z,1108.00
2018-01-21T09:02:40.072Z,1020.00
2018-01-21T09:03:39.981Z,1028.00
2018-01-21T09:04:39.924Z,1144.00
2018-01-21T09:05:39.808Z,1104.00
2018-01-21T09:06:39.724Z,1212.00
2018-01-21T09:07:39.646Z,1180.00
2018-01-21T09:08:39.551Z,1444.00
2018-01-21T09:09:39.468Z,1352.00
2018-01-21T09:10:39.378Z,1368.00
2018-01-21T09:11:39.296Z,1356.00
2018-01-21T09:12:39.206Z,1504.00
2018-01-21T09:13:39.130Z,1404.00
2018-01-21T09:14:39.043Z,1376.00
2018-01-21T09:15:38.950Z,1220.00
2018-01-21T09:16:38.862Z,1032.00
2018-01-21T09:17:38.777Z,1016.00
2018-01-21T09:18:38.693Z,1096.00
2018-01-21T09:19:38.609Z,1600.00
2018-01-21T09:20:38.519Z,1844.00
2018-01-21T09:21:38.438Z,1664.00
2018-01-21T09:22:38.349Z,1528.00
2018-01-21T09:23:38.269Z,1456.00
2018-01-21T09:24:38.180Z,1440.00
2018-01-21T09:25:38.094Z,1360.00
2018-01-21T09:26:38.010Z,1284.00
2018-01-21T09:27:37.926Z,1300.00
2018-01-21T09:28:37.834Z,1352.00
2018-01-21T09:29:44.322Z,1508.00
2018-01-21T09:30:37.663Z,1640.00
2018-01-21T09:31:37.577Z,1788.00
2018-01-21T09:32:37.490Z,1920.00
2018-01-21T09:33:37.413Z,2088.00
2018-01-21T09:34:37.323Z,1476.00
2018-01-21T09:35:37.238Z,1196.00
2018-01-21T09:36:37.157Z,1052.00
2018-01-21T09:37:37.064Z,1052.00
2018-01-21T09:38:36.977Z,1112.00
2018-01-21T09:39:36.910Z,1124.00
2018-01-21T09:40:36.829Z,1164.00
2018-01-21T09:41:36.721Z,1288.00
2018-01-21T09:42:36.635Z,1312.00
2018-01-21T09:43:36.564Z,1320.00
2018-01-21T09:44:36.462Z,1192.00
2018-01-21T09:45:36.386Z,1128.00
2018-01-21T09:46:36.294Z,1164.00
2018-01-21T09:47:36.204Z,1160.00
2018-01-21T09:48:36.121Z,1052.00
2018-01-21T09:49:36.035Z,1076.00
2018-01-21T09:50:35.950Z,1108.00
2018-01-21T09:51:35.869Z,1040.00
2018-01-21T09:52:35.778Z,1048.00
2018-01-21T09:53:35.724Z,1068.00
2018-01-21T09:54:35.605Z,1060.00
2018-01-21T09:55:35.520Z,1092.00
2018-01-21T09:56:35.434Z,1104.00
2018-01-21T09:57:35.348Z,1112.00
2018-01-21T09:58:35.261Z,1132.00
2018-01-21T09:59:35.178Z,1336.00
2018-01-21T10:00:35.091Z,1376.00
2018-01-21T10:01:35.002Z,1360.00
2018-01-21T10:02:34.919Z,1360.00
2018-01-21T10:03:34.844Z,1536.00
2018-01-21T10:04:34.748Z,1692.00
2018-01-21T10:05:34.667Z,1676.00
2018-01-21T10:06:34.577Z,1492.00
2018-01-21T10:07:34.490Z,1492.00
2018-01-21T10:08:34.404Z,1472.00
2018-01-21T10:09:34.319Z,1376.00
2018-01-21T10:10:34.247Z,1476.00
2018-01-21T10:11:34.146Z,1440.00
2018-01-21T10:12:34.062Z,1496.00
2018-01-21T10:13:33.976Z,1636.00
2018-01-21T10:14:33.900Z,1408.00
2018-01-21T10:15:33.807Z,1372.00
2018-01-21T10:16:33.729Z,1464.00
2018-01-21T10:17:33.633Z,1416.00
2018-01-21T10:18:33.546Z,1284.00
2018-01-21T10:19:33.463Z,1284.00
2018-01-21T10:20:33.373Z,1268.00
2018-01-21T10:21:33.289Z,1164.00
2018-01-21T10:22:33.206Z,1040.00
2018-01-21T10:23:33.117Z,1016.00
2018-01-21T10:24:33.033Z,920.00
2018-01-21T10:25:32.947Z,840.00
2018-01-21T10:26:32.867Z,792.00
2018-01-21T10:27:32.784Z,736.00
2018-01-21T10:28:32.692Z,768.00
2018-01-21T10:29:32.603Z,752.00
2018-01-21T10:30:32.518Z,868.00
2018-01-21T10:31:32.434Z,924.00
2018-01-21T10:32:32.351Z,944.00
2018-01-21T10:33:32.258Z,904.00
2018-01-21T10:34:32.182Z,968.00
2018-01-21T10:35:32.094Z,1120.00
2018-01-21T10:36:32.004Z,1172.00
2018-01-21T10:37:31.920Z,1208.00
2018-01-21T10:38:31.834Z,1208.00
2018-01-21T10:39:31.745Z,1140.00
2018-01-21T10:40:31.663Z,1312.00
2018-01-21T10:41:31.575Z,1164.00
2018-01-21T10:42:31.489Z,992.00
2018-01-21T10:43:31.404Z,1036.00
2018-01-21T10:44:31.319Z,1040.00
2018-01-21T10:45:31.231Z,1120.00
2018-01-21T10:46:31.147Z,1252.00
2018-01-21T10:47:31.067Z,972.00
2018-01-21T10:48:30.973Z,892.00
2018-01-21T10:49:30.888Z,760.00
2018-01-21T10:50:30.801Z,764.00
2018-01-21T10:51:30.717Z,808.00
2018-01-21T10:52:30.629Z,848.00
2018-01-21T10:53:30.542Z,824.00
2018-01-21T10:54:30.457Z,768.00
2018-01-21T10:55:30.373Z,812.00
2018-01-21T10:56:30.300Z,908.00
2018-01-21T10:57:30.199Z,868.00
2018-01-21T10:58:30.118Z,852.00
2018-01-21T10:59:30.028Z,968.00
2018-01-21T11:00:29.945Z,1232.00
2018-01-21T11:01:29.858Z,1260.00
2018-01-21T11:02:29.770Z,1168.00
2018-01-21T11:03:29.684Z,988.00
2018-01-21T11:04:29.598Z,920.00
2018-01-21T11:05:29.513Z,900.00
2018-01-21T11:06:29.425Z,688.00
2018-01-21T11:07:29.359Z,676.00
2018-01-21T11:08:29.258Z,588.00
2018-01-21T11:09:29.166Z,596.00
2018-01-21T11:10:29.081Z,512.00
2018-01-21T11:11:28.997Z,480.00
2018-01-21T11:12:28.909Z,464.00
2018-01-21T11:13:28.824Z,440.00
2018-01-21T11:14:28.741Z,412.00
2018-01-21T11:15:28.656Z,440.00
2018-01-21T11:16:28.567Z,552.00
2018-01-21T11:17:28.481Z,624.00
2018-01-21T11:18:28.403Z,624.00
2018-01-21T11:19:28.308Z,792.00
2018-01-21T11:20:28.226Z,880.00
2018-01-21T11:21:28.137Z,856.00
2018-01-21T11:22:28.051Z,844.00
2018-01-21T11:23:27.964Z,952.00
2018-01-21T11:24:27.883Z,780.00
2018-01-21T11:25:27.792Z,720.00
2018-01-21T11:26:27.711Z,920.00
2018-01-21T11:27:27.623Z,1028.00
2018-01-21T11:28:27.534Z,920.00
2018-01-21T11:29:27.452Z,796.00
2018-01-21T11:30:27.366Z,800.00
2018-01-21T11:31:27.290Z,804.00
2018-01-21T11:32:27.194Z,872.00
2018-01-21T11:33:27.107Z,968.00
2018-01-21T11:34:27.023Z,1004.00
2018-01-21T11:35:26.935Z,1048.00
2018-01-21T11:36:26.908Z,1132.00
2018-01-21T11:37:26.762Z,1180.00
2018-01-21T11:38:26.680Z,1324.00
2018-01-21T11:39:26.598Z,1388.00
2018-01-21T11:40:26.505Z,1416.00
2018-01-21T11:41:26.423Z,1508.00
2018-01-21T11:42:26.334Z,1492.00
2018-01-21T11:43:26.249Z,1460.00
2018-01-21T11:44:26.165Z,1448.00
2018-01-21T11:45:26.076Z,1460.00
2018-01-21T11:46:25.995Z,1436.00
2018-01-21T11:47:25.907Z,1444.00
2018-01-21T11:48:25.820Z,1416.00
2018-01-21T11:49:25.744Z,1340.00
2018-01-21T11:50:25.651Z,1240.00
2018-01-21T11:51:25.565Z,1120.00
2018-01-21T11:52:25.475Z,1048.00
2018-01-21T11:53:25.392Z,1004.00
2018-01-21T11:54:25.304Z,972.00
2018-01-21T11:55:25.218Z,976.00
2018-01-21T11:56:25.136Z,1008.00
2018-01-21T11:57:25.049Z,984.00
2018-01-21T11:58:24.962Z,956.00
2018-01-21T11:59:24.877Z,888.00
2018-01-21T12:00:24.794Z,824.00
2018-01-21T12:01:24.705Z,776.00
2018-01-21T12:02:24.620Z,800.00
2018-01-21T12:03:24.535Z,764.00
2018-01-21T12:04:24.446Z,744.00
2018-01-21T12:05:24.361Z,764.00
2018-01-21T12:06:24.279Z,796.00
2018-01-21T12:07:24.190Z,784.00
2018-01-21T12:08:24.105Z,748.00
2018-01-21T12:09:24.021Z,720.00
2018-01-21T12:10:23.939Z,708.00
2018-01-21T12:11:23.855Z,704.00
2018-01-21T12:12:23.761Z,740.00
2018-01-21T12:13:23.675Z,836.00
2018-01-21T12:14:23.592Z,872.00
2018-01-21T12:15:23.506Z,820.00
2018-01-21T12:16:23.418Z,808.00
2018-01-21T12:17:23.334Z,800.00
2018-01-21T12:18:23.263Z,716.00
2018-01-21T12:19:23.164Z,608.00
2018-01-21T12:20:23.089Z,584.00
2018-01-21T12:21:23.002Z,624.00
2018-01-21T12:22:22.905Z,576.00
2018-01-21T12:23:22.818Z,576.00
2018-01-21T12:24:22.732Z,596.00
2018-01-21T12:25:22.650Z,620.00
2018-01-21T12:26:22.566Z,648.00
2018-01-21T12:27:22.480Z,656.00
2018-01-21T12:28:22.390Z,676.00
2018-01-21T12:29:22.307Z,680.00
2018-01-21T12:30:22.221Z,672.00
2018-01-21T12:31:22.160Z,648.00
2018-01-21T12:32:22.049Z,676.00
2018-01-21T12:33:21.986Z,704.00
2018-01-21T12:34:21.879Z,732.00
2018-01-21T12:35:21.793Z,700.00
2018-01-21T12:36:21.706Z,692.00
2018-01-21T12:37:21.634Z,696.00
2018-01-21T12:38:21.538Z,708.00
2018-01-21T12:39:21.450Z,720.00
2018-01-21T12:40:21.368Z,736.00
2018-01-21T12:41:21.278Z,756.00
2018-01-21T12:42:21.193Z,768.00
2018-01-21T12:43:21.111Z,808.00
2018-01-21T12:44:21.021Z,860.00
2018-01-21T12:45:20.938Z,896.00
2018-01-21T12:46:20.852Z,920.00
2018-01-21T12:47:20.782Z,972.00
2018-01-21T12:48:20.677Z,1016.00
2018-01-21T12:49:20.592Z,1024.00
2018-01-21T12:50:20.506Z,972.00
2018-01-21T12:51:20.421Z,908.00
2018-01-21T12:52:20.333Z,844.00
2018-01-21T12:53:20.249Z,796.00